createdAt,value
2022-08-07T00:00:06.091Z,14.3
2022-08-07T00:02:36.166Z,14.3
2022-08-07T00:04:04.879Z,14.3
2022-08-07T00:06:04.821Z,14.2
2022-08-07T00:08:04.779Z,14.2
2022-08-07T00:10:26.499Z,14.1
2022-08-07T00:12:04.069Z,14.1
2022-08-07T00:14:03.485Z,14.1
2022-08-07T00:16:04.352Z,14.1
2022-08-07T00:18:03.867Z,14.1
2022-08-07T00:20:05.339Z,14.0
2022-08-07T00:22:03.456Z,13.9
2022-08-07T00:24:02.939Z,13.9
2022-08-07T00:26:18.674Z,13.9
2022-08-07T00:28:02.942Z,13.9
2022-08-07T00:30:02.963Z,13.9
2022-08-07T00:32:03.084Z,13.9
2022-08-07T00:34:02.008Z,13.9
2022-08-07T00:36:03.292Z,13.9
2022-08-07T00:38:01.877Z,13.8
2022-08-07T00:40:01.978Z,13.8
2022-08-07T00:42:05.289Z,13.7
2022-08-07T00:44:02.934Z,13.7
2022-08-07T00:46:02.177Z,13.6
2022-08-07T00:48:08.964Z,13.6
2022-08-07T00:50:19.128Z,13.6
2022-08-07T00:52:01.118Z,13.6
2022-08-07T00:56:03.718Z,13.6
2022-08-07T00:58:02.052Z,13.5
2022-08-07T01:00:01.001Z,13.5
2022-08-07T01:02:01.699Z,13.5
2022-08-07T01:04:04.670Z,13.5
2022-08-07T01:06:00.477Z,13.5
2022-08-07T01:08:00.180Z,13.5
2022-08-07T01:10:06.226Z,13.4
2022-08-07T01:12:24.070Z,13.4
2022-08-07T01:14:00.829Z,13.4
2022-08-07T01:16:05.413Z,13.4
2022-08-07T01:18:00.117Z,13.3
2022-08-07T01:20:04.010Z,13.3
2022-08-07T01:22:00.526Z,13.3
2022-08-07T01:24:01.015Z,13.3
2022-08-07T01:27:59.072Z,13.2
2022-08-07T01:29:58.624Z,13.2
2022-08-07T01:31:59.545Z,13.2
2022-08-07T01:36:06.191Z,13.2
2022-08-07T01:42:37.197Z,13.1
2022-08-07T01:45:58.739Z,13.1
2022-08-07T01:48:30.292Z,13.1
2022-08-07T01:49:57.038Z,13.0
2022-08-07T01:52:03.342Z,13.0
2022-08-07T01:54:12.760Z,13.0
2022-08-07T01:56:02.032Z,12.9
2022-08-07T01:58:01.241Z,12.9
2022-08-07T02:00:00.824Z,12.8
2022-08-07T02:02:04.368Z,12.7
2022-08-07T02:04:00.892Z,12.7
2022-08-07T02:06:01.400Z,12.7
2022-08-07T02:08:00.346Z,12.7
2022-08-07T02:14:00.760Z,12.7
2022-08-07T02:17:58.009Z,12.6
2022-08-07T02:20:06.802Z,12.6
2022-08-07T02:21:57.805Z,12.5
2022-08-07T02:23:56.970Z,12.5
2022-08-07T02:26:30.528Z,12.5
2022-08-07T02:27:54.969Z,12.5
2022-08-07T02:29:58.059Z,12.4
2022-08-07T02:34:03.978Z,12.6
2022-08-07T02:37:56.885Z,12.5
2022-08-07T02:40:12.334Z,12.4
2022-08-07T02:41:54.975Z,12.4
2022-08-07T02:45:58.461Z,12.4
2022-08-07T02:47:53.018Z,12.4
2022-08-07T02:49:56.018Z,12.4
2022-08-07T02:51:56.655Z,12.3
2022-08-07T02:53:54.942Z,12.2
2022-08-07T02:56:04.468Z,12.1
2022-08-07T02:57:58.016Z,12.2
2022-08-07T02:59:54.851Z,12.2
2022-08-07T03:01:55.261Z,12.2
2022-08-07T03:03:52.064Z,12.1
2022-08-07T03:09:52.222Z,12.1
2022-08-07T03:11:57.764Z,12.1
2022-08-07T03:13:51.528Z,12.0
2022-08-07T03:15:56.309Z,12.0
2022-08-07T03:17:53.311Z,12.0
2022-08-07T03:19:54.748Z,12.0
2022-08-07T03:21:51.795Z,11.9
2022-08-07T03:24:20.932Z,12.0
2022-08-07T03:25:50.804Z,12.0
2022-08-07T03:27:59.084Z,11.9
2022-08-07T03:29:51.466Z,11.9
2022-08-07T03:31:51.281Z,11.9
2022-08-07T03:33:52.320Z,11.8
2022-08-07T03:35:50.398Z,11.7
2022-08-07T03:37:55.099Z,11.8
2022-08-07T03:39:59.421Z,11.8
2022-08-07T03:41:50.918Z,11.8
2022-08-07T03:47:51.403Z,11.7
2022-08-07T03:49:52.266Z,11.7
2022-08-07T03:52:00.964Z,11.7
2022-08-07T03:54:05.499Z,11.6
2022-08-07T03:55:57.743Z,11.6
2022-08-07T04:00:01.801Z,11.6
2022-08-07T04:01:48.418Z,11.6
2022-08-07T04:03:53.497Z,11.6
2022-08-07T04:05:47.317Z,11.6
2022-08-07T04:07:47.731Z,11.5
2022-08-07T04:12:25.144Z,11.5
2022-08-07T04:14:09.382Z,11.6
2022-08-07T04:15:49.112Z,11.6
2022-08-07T04:19:52.702Z,11.6
2022-08-07T04:21:47.982Z,11.6
2022-08-07T04:25:46.515Z,11.4
2022-08-07T04:27:46.220Z,11.4
2022-08-07T04:29:58.408Z,11.4
2022-08-07T04:32:03.394Z,11.4
2022-08-07T04:33:45.811Z,11.5
2022-08-07T04:35:50.606Z,11.5
2022-08-07T04:38:03.332Z,11.5
2022-08-07T04:39:49.922Z,11.5
2022-08-07T04:41:43.654Z,11.4
2022-08-07T04:44:12.165Z,11.4
2022-08-07T04:46:01.523Z,11.5
2022-08-07T04:47:56.885Z,11.5
2022-08-07T04:49:57.725Z,11.5
2022-08-07T04:51:53.682Z,11.6
2022-08-07T04:54:06.462Z,11.6
2022-08-07T04:58:11.091Z,11.6
2022-08-07T04:58:11.260Z,11.6
2022-08-07T05:00:12.728Z,11.6
2022-08-07T05:01:50.655Z,11.7
2022-08-07T05:04:06.647Z,11.7
2022-08-07T05:07:51.814Z,11.8
2022-08-07T05:09:51.093Z,11.8
2022-08-07T05:11:57.691Z,11.9
2022-08-07T05:14:56.174Z,11.9
2022-08-07T05:15:44.004Z,11.9
2022-08-07T05:17:51.454Z,11.9
2022-08-07T05:19:45.496Z,11.9
2022-08-07T05:22:00.270Z,12.0
2022-08-07T05:23:46.329Z,12.0
2022-08-07T05:26:10.662Z,12.1
2022-08-07T05:28:02.601Z,12.1
2022-08-07T05:29:51.065Z,12.1
2022-08-07T05:31:51.043Z,12.2
2022-08-07T05:33:40.529Z,12.3
2022-08-07T05:35:42.071Z,12.3
2022-08-07T05:37:42.278Z,12.4
2022-08-07T05:40:05.361Z,12.5
2022-08-07T05:43:43.510Z,12.6
2022-08-07T05:45:47.916Z,12.6
2022-08-07T05:48:01.549Z,12.7
2022-08-07T05:49:40.775Z,12.8
2022-08-07T05:51:40.037Z,12.8
2022-08-07T05:54:09.679Z,12.9
2022-08-07T05:56:03.042Z,13.0
2022-08-07T05:57:42.355Z,13.1
2022-08-07T05:59:57.337Z,13.1
2022-08-07T06:01:38.649Z,13.1
2022-08-07T06:03:53.926Z,13.2
2022-08-07T06:05:38.171Z,13.2
2022-08-07T06:08:14.171Z,13.3
2022-08-07T06:10:04.348Z,13.4
2022-08-07T06:11:38.631Z,13.4
2022-08-07T06:14:13.814Z,13.5
2022-08-07T06:15:42.739Z,13.6
2022-08-07T06:17:37.413Z,13.7
2022-08-07T06:19:57.496Z,13.7
2022-08-07T06:22:16.780Z,13.8
2022-08-07T06:24:37.199Z,13.8
2022-08-07T06:25:39.673Z,13.8
2022-08-07T06:29:39.014Z,14.0
2022-08-07T06:31:38.461Z,13.9
2022-08-07T06:33:35.942Z,14.0
2022-08-07T06:35:45.283Z,14.1
2022-08-07T06:37:43.434Z,14.1
2022-08-07T06:40:16.391Z,14.1
2022-08-07T06:42:00.770Z,14.2
2022-08-07T06:43:39.486Z,14.2
2022-08-07T06:45:35.685Z,14.4
2022-08-07T06:47:48.125Z,14.4
2022-08-07T06:49:35.442Z,14.5
2022-08-07T06:51:43.399Z,14.6
2022-08-07T06:55:30.154Z,14.6
2022-08-07T06:55:53.744Z,14.6
2022-08-07T06:57:43.438Z,14.7
2022-08-07T07:00:11.916Z,14.8
2022-08-07T07:01:44.099Z,14.9
2022-08-07T07:03:48.072Z,14.9
2022-08-07T07:06:05.676Z,14.9
2022-08-07T07:07:59.590Z,15.0
2022-08-07T07:09:36.199Z,15.1
2022-08-07T07:12:08.357Z,15.2
2022-08-07T07:15:41.134Z,15.3
2022-08-07T07:17:45.391Z,15.4
2022-08-07T07:19:55.736Z,15.4
2022-08-07T07:22:04.732Z,15.5
2022-08-07T07:24:08.992Z,15.6
2022-08-07T07:26:34.758Z,15.7
2022-08-07T07:27:56.054Z,15.8
2022-08-07T07:29:55.757Z,15.8
2022-08-07T07:31:39.807Z,15.9
2022-08-07T07:35:51.924Z,16.1
2022-08-07T07:37:45.087Z,16.2
2022-08-07T07:39:52.307Z,16.3
2022-08-07T07:42:02.337Z,16.3
2022-08-07T07:46:40.493Z,16.4
2022-08-07T07:50:33.101Z,16.5
2022-08-07T07:51:58.580Z,16.7
2022-08-07T07:53:35.075Z,16.8
2022-08-07T07:55:37.524Z,16.8
2022-08-07T07:57:50.441Z,16.9
2022-08-07T07:59:52.882Z,16.9
2022-08-07T08:04:09.856Z,17.0
2022-08-07T08:05:42.910Z,17.1
2022-08-07T08:07:42.181Z,17.1
2022-08-07T08:11:59.834Z,17.2
2022-08-07T08:13:52.793Z,17.1
2022-08-07T08:15:57.773Z,17.2
2022-08-07T08:17:57.635Z,17.4
2022-08-07T08:22:02.560Z,17.5
2022-08-07T08:27:36.345Z,17.6
2022-08-07T08:32:17.326Z,17.7
2022-08-07T08:33:34.074Z,17.8
2022-08-07T08:35:42.930Z,17.8
2022-08-07T08:38:00.790Z,17.9
2022-08-07T08:39:38.927Z,17.9
2022-08-07T08:41:57.718Z,18.0
2022-08-07T08:43:58.663Z,18.0
2022-08-07T08:46:00.805Z,18.0
2022-08-07T08:47:52.797Z,18.1
2022-08-07T08:49:46.412Z,18.2
2022-08-07T08:53:38.186Z,18.3
2022-08-07T08:55:54.993Z,18.3
2022-08-07T08:59:48.094Z,18.5
2022-08-07T09:01:46.438Z,18.5
2022-08-07T09:03:48.074Z,18.5
2022-08-07T09:05:40.411Z,18.7
2022-08-07T09:07:46.316Z,18.7
2022-08-07T09:11:51.224Z,18.8
2022-08-07T09:13:38.399Z,18.8
2022-08-07T09:19:53.487Z,18.9
2022-08-07T09:22:09.992Z,19.0
2022-08-07T09:24:32.306Z,19.0
2022-08-07T09:25:41.078Z,19.1
2022-08-07T09:27:59.660Z,19.3
2022-08-07T09:30:04.272Z,19.3
2022-08-07T09:36:04.587Z,19.3
2022-08-07T09:37:53.861Z,19.4
2022-08-07T09:39:53.928Z,19.4
2022-08-07T09:44:06.470Z,19.6
2022-08-07T09:47:27.346Z,19.6
2022-08-07T09:47:59.317Z,19.7
2022-08-07T09:50:01.780Z,19.8
2022-08-07T09:52:15.720Z,19.9
2022-08-07T09:53:41.266Z,19.9
2022-08-07T09:57:51.487Z,20.0
2022-08-07T10:00:00.293Z,20.0
2022-08-07T10:01:54.336Z,17.5
2022-08-07T10:04:05.330Z,17.5
2022-08-07T10:07:52.957Z,20.1
2022-08-07T10:10:00.834Z,20.1
2022-08-07T10:12:03.094Z,20.1
2022-08-07T10:14:00.280Z,20.1
2022-08-07T10:15:44.356Z,20.1
2022-08-07T10:18:00.975Z,20.1
2022-08-07T10:19:45.773Z,20.1
2022-08-07T10:22:12.306Z,20.1
2022-08-07T10:24:05.955Z,20.1
2022-08-07T10:25:51.943Z,20.1
2022-08-07T10:27:47.383Z,20.1
2022-08-07T10:29:51.621Z,20.1
2022-08-07T10:31:49.544Z,20.1
2022-08-07T10:34:15.173Z,20.1
2022-08-07T10:35:55.957Z,20.1
2022-08-07T10:38:00.294Z,20.1
2022-08-07T10:41:53.169Z,20.1
2022-08-07T10:43:37.832Z,20.1
2022-08-07T10:45:44.610Z,20.1
2022-08-07T10:47:53.214Z,20.1
2022-08-07T10:52:02.219Z,20.1
2022-08-07T10:53:44.575Z,20.1
2022-08-07T11:03:54.833Z,20.1
2022-08-07T11:05:50.364Z,20.1
2022-08-07T11:10:09.131Z,20.1
2022-08-07T11:11:38.897Z,20.1
2022-08-07T11:14:43.554Z,20.1
2022-08-07T11:15:39.617Z,20.1
2022-08-07T11:17:45.818Z,20.1
2022-08-07T11:19:39.529Z,20.1
2022-08-07T11:21:43.086Z,20.1
2022-08-07T11:23:42.595Z,20.1
2022-08-07T11:25:42.207Z,20.1
2022-08-07T11:28:01.172Z,20.1
2022-08-07T11:31:45.079Z,20.1
2022-08-07T11:33:58.626Z,20.1
2022-08-07T11:35:58.900Z,20.1
2022-08-07T11:40:01.313Z,20.1
2022-08-07T11:42:00.469Z,20.1
2022-08-07T11:44:11.379Z,20.1
2022-08-07T11:45:53.678Z,20.1
2022-08-07T11:47:56.206Z,20.1
2022-08-07T11:50:31.713Z,20.1
2022-08-07T11:51:49.578Z,20.1
2022-08-07T11:57:59.551Z,20.1
2022-08-07T12:00:12.183Z,20.1
2022-08-07T12:01:59.755Z,20.1
2022-08-07T12:03:52.306Z,20.1
2022-08-07T12:05:48.814Z,20.1
2022-08-07T12:07:43.084Z,20.1
2022-08-07T12:09:41.935Z,20.1
2022-08-07T12:12:09.709Z,20.1
2022-08-07T12:13:45.021Z,20.1
2022-08-07T12:16:06.741Z,20.1
2022-08-07T12:20:02.772Z,20.1
2022-08-07T12:24:07.483Z,20.1
2022-08-07T12:26:22.140Z,20.1
2022-08-07T12:28:08.589Z,20.1
2022-08-07T12:31:53.369Z,20.1
2022-08-07T12:34:00.713Z,20.1
2022-08-07T12:35:39.427Z,20.1
2022-08-07T12:39:42.306Z,20.1
2022-08-07T12:41:49.263Z,20.1
2022-08-07T12:45:52.495Z,20.1
2022-08-07T12:47:46.178Z,20.1
2022-08-07T12:49:52.897Z,20.1
2022-08-07T12:51:50.946Z,20.1
2022-08-07T12:56:03.522Z,20.1
2022-08-07T12:58:00.954Z,20.1
2022-08-07T13:01:54.673Z,20.1
2022-08-07T13:04:03.123Z,20.1
2022-08-07T13:06:04.429Z,20.1
2022-08-07T13:08:12.137Z,20.1
2022-08-07T13:10:28.353Z,20.1
2022-08-07T13:12:02.973Z,20.1
2022-08-07T13:13:51.672Z,20.1
2022-08-07T13:15:51.144Z,20.1
2022-08-07T13:17:48.787Z,20.1
2022-08-07T13:19:51.581Z,20.1
2022-08-07T13:21:57.481Z,20.1
2022-08-07T13:24:00.578Z,20.1
2022-08-07T13:28:10.989Z,20.1
2022-08-07T13:29:49.311Z,20.1
2022-08-07T13:31:57.195Z,20.1
2022-08-07T13:34:30.214Z,20.1
2022-08-07T13:36:00.686Z,20.1
2022-08-07T13:37:58.495Z,20.1
2022-08-07T13:40:33.946Z,20.1
2022-08-07T13:41:47.282Z,20.1
2022-08-07T13:43:44.811Z,20.1
2022-08-07T13:46:20.656Z,20.1
2022-08-07T13:48:06.456Z,20.1
2022-08-07T13:50:34.005Z,20.1
2022-08-07T13:52:05.509Z,20.1
2022-08-07T13:54:00.160Z,20.1
2022-08-07T13:55:46.869Z,20.1
2022-08-07T13:57:59.061Z,20.1
2022-08-07T13:59:49.548Z,20.1
2022-08-07T14:01:51.088Z,20.1
2022-08-07T14:04:07.510Z,20.1
2022-08-07T14:05:45.422Z,20.1
2022-08-07T14:08:00.448Z,20.1
2022-08-07T14:18:23.894Z,20.1
2022-08-07T14:20:43.188Z,20.1
2022-08-07T14:22:02.057Z,20.1
2022-08-07T14:24:00.751Z,20.1
2022-08-07T14:30:05.354Z,20.1
2022-08-07T14:31:55.973Z,20.1
2022-08-07T14:33:46.543Z,20.1
2022-08-07T14:35:47.660Z,20.1
2022-08-07T14:40:17.553Z,20.1
2022-08-07T14:42:18.483Z,20.1
2022-08-07T14:43:57.986Z,20.1
2022-08-07T14:45:49.932Z,20.1
2022-08-07T14:47:48.565Z,20.1
2022-08-07T14:49:56.771Z,20.1
2022-08-07T14:52:04.657Z,20.1
2022-08-07T14:54:30.485Z,20.1
2022-08-07T14:57:54.805Z,20.1
2022-08-07T15:00:03.326Z,20.1
2022-08-07T15:01:51.315Z,20.1
2022-08-07T15:07:51.784Z,20.1
2022-08-07T15:09:58.929Z,20.1
2022-08-07T15:12:01.588Z,20.1
2022-08-07T15:13:53.933Z,20.1
2022-08-07T15:15:55.332Z,20.1
2022-08-07T15:17:55.900Z,20.1
2022-08-07T15:20:34.034Z,20.1
2022-08-07T15:25:13.161Z,20.1
2022-08-07T15:25:54.915Z,20.1
2022-08-07T15:28:30.782Z,20.1
2022-08-07T15:30:10.225Z,20.1
2022-08-07T15:32:01.675Z,20.1
2022-08-07T15:33:57.414Z,20.1
2022-08-07T15:36:05.045Z,20.1
2022-08-07T15:38:17.215Z,20.1
2022-08-07T15:39:57.561Z,20.1
2022-08-07T15:43:58.877Z,20.1
2022-08-07T15:45:55.396Z,20.1
2022-08-07T15:50:04.159Z,20.1
2022-08-07T15:53:55.061Z,20.1
2022-08-07T15:56:03.000Z,20.1
2022-08-07T15:58:00.386Z,20.1
2022-08-07T15:59:54.004Z,20.1
2022-08-07T16:03:57.383Z,20.1
2022-08-07T16:08:30.479Z,20.1
2022-08-07T16:10:00.659Z,20.1
2022-08-07T16:14:03.001Z,20.1
2022-08-07T16:16:06.880Z,20.1
2022-08-07T16:20:03.503Z,20.1
2022-08-07T16:23:59.873Z,20.1
2022-08-07T16:26:05.933Z,20.1
2022-08-07T16:28:05.908Z,20.1
2022-08-07T16:30:29.331Z,20.1
2022-08-07T16:32:00.566Z,20.1
2022-08-07T16:34:07.392Z,20.1
2022-08-07T16:36:18.304Z,20.1
2022-08-07T16:38:11.279Z,20.1
2022-08-07T16:40:28.936Z,20.1
2022-08-07T16:47:02.963Z,20.1
2022-08-07T16:48:16.169Z,20.1
2022-08-07T16:50:36.980Z,20.1
2022-08-07T16:52:50.748Z,20.1
2022-08-07T16:58:03.696Z,20.1
2022-08-07T17:00:06.069Z,20.1
2022-08-07T17:02:00.188Z,20.1
2022-08-07T17:06:29.155Z,20.1
2022-08-07T17:08:02.107Z,20.1
2022-08-07T17:10:07.834Z,20.1
2022-08-07T17:12:05.018Z,20.1
2022-08-07T17:16:03.741Z,20.1
2022-08-07T17:18:11.588Z,20.1
2022-08-07T17:24:14.362Z,20.1
2022-08-07T17:28:06.587Z,20.1
2022-08-07T17:32:13.797Z,20.1
2022-08-07T17:34:34.037Z,20.1
2022-08-07T17:36:05.998Z,20.1
2022-08-07T17:38:09.739Z,20.1
2022-08-07T17:40:08.212Z,20.1
2022-08-07T17:44:16.364Z,20.1
2022-08-07T17:48:05.901Z,20.1
2022-08-07T17:50:05.067Z,20.1
2022-08-07T17:52:10.539Z,20.1
2022-08-07T17:54:11.817Z,20.1
2022-08-07T17:56:12.319Z,20.1
2022-08-07T18:00:05.421Z,20.1
2022-08-07T18:02:10.872Z,20.1
2022-08-07T18:04:16.108Z,20.1
2022-08-07T18:08:16.401Z,20.1
2022-08-07T18:10:10.323Z,20.1
2022-08-07T18:12:28.101Z,20.1
2022-08-07T18:14:16.517Z,20.1
2022-08-07T18:16:05.222Z,20.1
2022-08-07T18:18:08.244Z,20.1
2022-08-07T18:21:03.338Z,20.1
2022-08-07T18:26:14.883Z,20.1
2022-08-07T18:30:32.412Z,20.1
2022-08-07T18:38:56.459Z,20.1
2022-08-07T18:40:40.528Z,20.1
2022-08-07T18:42:16.238Z,20.1
2022-08-07T18:44:15.155Z,20.1
2022-08-07T18:46:25.978Z,20.1
2022-08-07T18:50:39.224Z,20.1
2022-08-07T18:54:13.942Z,20.1
2022-08-07T18:56:13.184Z,20.1
2022-08-07T18:58:22.518Z,20.1
2022-08-07T19:02:18.036Z,20.1
2022-08-07T19:04:13.758Z,20.1
2022-08-07T19:06:08.383Z,20.1
2022-08-07T19:08:09.822Z,20.1
2022-08-07T19:10:14.801Z,20.1
2022-08-07T19:14:16.904Z,20.1
2022-08-07T19:18:12.203Z,20.1
2022-08-07T19:20:29.604Z,20.1
2022-08-07T19:22:16.916Z,20.1
2022-08-07T19:24:09.553Z,20.1
2022-08-07T19:26:23.846Z,20.1
2022-08-07T19:30:55.521Z,20.1
2022-08-07T19:31:02.151Z,20.1
2022-08-07T19:32:18.034Z,20.1
2022-08-07T19:34:06.424Z,20.1
2022-08-07T19:36:10.228Z,20.1
2022-08-07T19:38:15.891Z,20.1
2022-08-07T19:40:08.760Z,20.1
2022-08-07T19:42:22.571Z,20.1
2022-08-07T19:50:43.829Z,20.1
2022-08-07T19:54:35.360Z,20.1
2022-08-07T19:56:15.109Z,20.1
2022-08-07T19:58:13.959Z,20.1
2022-08-07T20:02:06.715Z,20.1
2022-08-07T20:04:06.583Z,20.1
2022-08-07T20:06:06.933Z,20.1
2022-08-07T20:08:10.720Z,20.1
2022-08-07T20:10:35.746Z,20.1
2022-08-07T20:14:07.264Z,20.1
2022-08-07T20:16:09.075Z,20.1
2022-08-07T20:18:14.451Z,20.1
2022-08-07T20:20:07.552Z,20.1
2022-08-07T20:22:12.023Z,20.1
2022-08-07T20:24:13.357Z,20.1
2022-08-07T20:26:09.954Z,20.1
2022-08-07T20:28:09.185Z,20.1
2022-08-07T20:30:11.106Z,20.1
2022-08-07T20:34:08.976Z,20.1
2022-08-07T20:36:09.697Z,20.1
2022-08-07T20:38:07.921Z,20.1
2022-08-07T20:40:32.952Z,20.1
2022-08-07T20:42:10.509Z,20.1
2022-08-07T20:44:12.325Z,20.1
2022-08-07T20:46:26.612Z,20.1
2022-08-07T20:48:08.754Z,20.1
2022-08-07T20:52:13.785Z,20.1
2022-08-07T20:54:11.961Z,20.1
2022-08-07T20:56:09.254Z,20.1
2022-08-07T20:58:11.923Z,20.1
2022-08-07T21:00:09.553Z,20.1
2022-08-07T21:02:28.022Z,20.1
2022-08-07T21:06:21.809Z,20.1
2022-08-07T21:08:12.573Z,20.1
2022-08-07T21:10:11.656Z,20.1
2022-08-07T21:12:15.150Z,20.1
2022-08-07T21:14:29.698Z,20.1
2022-08-07T21:20:18.894Z,20.1
2022-08-07T21:22:08.708Z,20.1
2022-08-07T21:24:11.136Z,20.1
2022-08-07T21:26:15.556Z,20.1
2022-08-07T21:28:13.631Z,20.1
2022-08-07T21:30:10.677Z,20.1
2022-08-07T21:32:47.799Z,20.1
2022-08-07T21:34:12.140Z,20.1
2022-08-07T21:36:31.197Z,20.1
2022-08-07T21:38:17.906Z,20.1
2022-08-07T21:40:13.822Z,20.1
2022-08-07T21:44:14.676Z,20.1
2022-08-07T21:52:11.751Z,20.1
2022-08-07T21:54:16.326Z,20.1
2022-08-07T21:58:12.100Z,20.1
2022-08-07T22:00:11.304Z,20.1
2022-08-07T22:02:13.742Z,20.1
2022-08-07T22:04:08.291Z,20.1
2022-08-07T22:06:30.761Z,20.1
2022-08-07T22:08:07.573Z,20.1
2022-08-07T22:10:07.059Z,20.1
2022-08-07T22:12:12.083Z,20.1
2022-08-07T22:16:43.091Z,20.1
2022-08-07T22:18:09.803Z,20.1
2022-08-07T22:20:23.469Z,20.1
2022-08-07T22:22:21.569Z,20.1
2022-08-07T22:24:12.132Z,20.1
2022-08-07T22:26:12.527Z,20.1
2022-08-07T22:28:32.156Z,20.1
2022-08-07T22:30:12.480Z,20.1
2022-08-07T22:34:12.950Z,20.1
2022-08-07T22:36:15.950Z,20.1
2022-08-07T22:38:24.317Z,20.1
2022-08-07T22:42:19.826Z,20.1
2022-08-07T22:44:13.011Z,20.1
2022-08-07T22:48:13.630Z,20.1
2022-08-07T22:50:20.663Z,20.1
2022-08-07T22:52:34.628Z,20.1
2022-08-07T22:54:24.007Z,20.1
2022-08-07T22:56:08.598Z,20.1
2022-08-07T22:58:24.993Z,20.1
2022-08-07T23:00:12.891Z,20.1
2022-08-07T23:02:17.784Z,20.1
2022-08-07T23:04:20.821Z,20.1
2022-08-07T23:06:18.114Z,20.1
2022-08-07T23:08:23.959Z,20.1
2022-08-07T23:10:37.988Z,20.1
2022-08-07T23:12:21.173Z,20.1
2022-08-07T23:14:18.866Z,20.1
2022-08-07T23:16:44.699Z,20.1
2022-08-07T23:18:18.378Z,20.1
2022-08-07T23:20:40.759Z,20.1
2022-08-07T23:22:19.596Z,20.1
2022-08-07T23:24:21.674Z,20.1
2022-08-07T23:26:15.315Z,20.1
2022-08-07T23:28:21.129Z,20.1
2022-08-07T23:30:37.094Z,20.1
2022-08-07T23:34:20.123Z,20.1
2022-08-07T23:34:38.130Z,20.1
2022-08-07T23:36:17.236Z,20.1
2022-08-07T23:38:42.238Z,20.1
2022-08-07T23:42:22.008Z,20.1
2022-08-07T23:44:24.687Z,20.1
2022-08-07T23:46:23.689Z,20.1
2022-08-07T23:48:19.194Z,20.1
2022-08-07T23:50:20.381Z,20.1
2022-08-07T23:54:11.605Z,20.1
2022-08-07T23:56:12.459Z,20.1
2022-08-07T23:58:18.512Z,20.1
